Tropical Cyclones
[Index]
Main Index Home Page Stock Weather Photos Extreme Storms Discussion Storm News and Storm Chasing Reports Tropical Cyclones / Hurricanes / Typhoons Weather Data and Links Wild Fires / Bushfires Weather Observation Techniques Weather Picture Catalogue Tornado Pictures and Reports Stock Video Footage and DVDs for sale
Season 1999-2000 Tropical Cyclone VAUGHAN Track Map
Season 1999-2000 Summaries: [BoM-AU] [JTWC-AU] [JTWC-SIO] [JTWC-SPAC] [JTWC-SH]
<<- Previous TC | JTWC 1999-2000 Season | Next TC ->>

click for intensity scale information  Lat/long Grid: Show Hide

 Date Labels: Show Hide

Joint Typhoon Warning Centre Cyclone Data

Name: VAUGHAN

31 Mar 2000 00:00 UTC to 07 Apr 2000 00:00 UTC

    date/time    lat    long     hPa   cat  kts
2000-03-31 00   20.5   167.7                  25          
2000-03-31 06   20.1   167.2                  25          
2000-03-31 12   19.9   167.1                  25          
2000-03-31 18   19.7   167.2                  25          
2000-04-01 00   18.3   166.5                  25          
2000-04-01 06   17.9   166.0                  25          
2000-04-01 12   17.6   165.2                  25          
2000-04-01 18   17.3   164.1                  25          
2000-04-02 00   17.2   162.8                  25          
2000-04-02 06   16.7   161.9                  25          
2000-04-02 12   16.3   160.8                  25          
2000-04-02 18   15.3   160.3                  25          
2000-04-03 00   14.5   159.4                  35          
2000-04-03 06   14.4   158.3                  35          
2000-04-03 12   14.2   157.1                  35          
2000-04-03 18   13.8   156.1            1     45          
2000-04-04 00   13.6   155.0            1     50          
2000-04-04 06   13.4   153.6            1     45          
2000-04-04 12   13.2   152.6            1     45          
2000-04-04 18   13.3   151.9            1     45          
2000-04-05 00   14.0   151.4            1     40          
2000-04-05 06   14.5   150.4                  35          
2000-04-05 12   14.7   149.7                  35          
2000-04-05 18   14.9   148.8                  35          
2000-04-06 00   15.3   147.4            1     40          
2000-04-06 06   15.5   146.6            1     40          
2000-04-06 12   16.1   146.2                  30          
2000-04-06 18   16.5   145.9                  25          
2000-04-07 00   16.7   145.4                  15          
Winds are 1-min average.

Tropical cyclone tracks developed by Michael Bath using data from the Joint Typhoon Warning Centre Best Tracks and Google Maps.


[Australian Severe Weather index] [Copyright Notice] [Email Contacts] [Search This Site] [Privacy Policy]
Document: tropical_cyclone_vaughan.htm Updated: 18 September 2016